Time;durP1;ratioP1;P1;durP2;ratioP2;P2;SDS_P1;SDS_P2;PMS_P1;PMS_P2;Temp;Humidity;BMP_temperature;BMP_pressure;BME280_temperature;BME280_humidity;BME280_pressure;Samples;Min_cycle;Max_cycle;Signal;HPM_P1;HPM_P2
2022/02/22 00:00:48;;;;;;;7.20;2.03;;;8.10;88.40;;;;;;6206076;28;20125;-83
2022/02/22 00:03:49;;;;;;;9.80;1.13;;;8.00;89.10;;;;;;6203244;28;20042;-81
2022/02/22 00:34:31;;;;;;;14.63;2.47;;;8.20;88.70;;;;;;6186779;28;20031;-85
2022/02/22 00:37:32;;;;;;;9.95;1.50;;;8.20;88.90;;;;;;6180525;28;20055;-82
2022/02/22 00:40:34;;;;;;;3.08;0.88;;;8.30;88.70;;;;;;6180653;28;20485;-81
2022/02/22 00:43:38;;;;;;;5.68;1.27;;;8.30;88.60;;;;;;6179571;28;20058;-82
2022/02/22 00:46:40;;;;;;;3.80;0.55;;;8.30;88.30;;;;;;6180377;28;20046;-82
2022/02/22 00:49:43;;;;;;;2.90;0.68;;;8.20;88.30;;;;;;6178814;28;20134;-82
2022/02/22 00:52:45;;;;;;;4.72;1.75;;;8.30;88.60;;;;;;6179607;28;20051;-81
2022/02/22 00:55:46;;;;;;;3.30;0.80;;;8.20;89.80;;;;;;6179004;28;20057;-82
2022/02/22 00:58:48;;;;;;;7.30;2.45;;;8.20;90.50;;;;;;6179463;28;20118;-81
2022/02/22 01:01:50;;;;;;;8.20;3.67;;;8.00;90.90;;;;;;6178323;28;20090;-80
2022/02/22 01:04:53;;;;;;;3.47;1.10;;;7.90;91.00;;;;;;6179628;28;20501;-81
2022/02/22 01:07:56;;;;;;;10.65;2.20;;;7.90;91.30;;;;;;6180598;28;20137;-81
2022/02/22 01:10:58;;;;;;;6.10;1.30;;;7.90;91.70;;;;;;6180488;28;20393;-82
2022/02/22 01:14:00;;;;;;;8.90;1.30;;;7.80;91.50;;;;;;6180589;28;20038;-81
2022/02/22 01:17:02;;;;;;;12.07;1.95;;;7.80;91.40;;;;;;6181729;28;20058;-81
2022/02/22 01:20:08;;;;;;;11.63;2.28;;;7.80;91.40;;;;;;6179878;28;20046;-81
2022/02/22 01:23:10;;;;;;;13.75;1.88;;;7.80;91.40;;;;;;6178702;28;20047;-81
2022/02/22 01:26:12;;;;;;;10.85;1.38;;;7.80;91.70;;;;;;6179040;28;20547;-81
2022/02/22 01:29:13;;;;;;;3.38;1.17;;;7.80;90.90;;;;;;6180175;28;20187;-81
2022/02/22 01:32:15;;;;;;;4.63;1.85;;;7.70;90.90;;;;;;6180700;28;20398;-80
2022/02/22 01:35:18;;;;;;;8.10;1.40;;;7.60;90.90;;;;;;6178299;28;20050;-81
2022/02/22 01:38:20;;;;;;;7.55;1.00;;;7.50;90.80;;;;;;6178867;28;20437;-82
2022/02/22 01:41:23;;;;;;;11.75;1.52;;;7.40;91.10;;;;;;6179245;28;20073;-81
2022/02/22 01:44:24;;;;;;;8.27;1.67;;;7.30;91.20;;;;;;6178774;28;20056;-82
2022/02/22 01:47:27;;;;;;;3.35;1.25;;;7.30;91.10;;;;;;6179989;28;20125;-82
2022/02/22 01:50:30;;;;;;;7.43;2.47;;;7.20;91.40;;;;;;6222959;22;20172;-82
2022/02/22 01:53:32;;;;;;;5.97;1.55;;;7.10;91.60;;;;;;6206599;28;20050;-83
2022/02/22 01:56:36;;;;;;;9.95;1.95;;;7.10;91.70;;;;;;6205108;28;20057;-82
2022/02/22 01:59:38;;;;;;;7.82;1.55;;;7.10;91.70;;;;;;6197581;28;20055;-82
2022/02/22 02:02:40;;;;;;;5.20;1.35;;;7.00;91.90;;;;;;6180951;28;20110;-83
2022/02/22 02:05:44;;;;;;;12.65;1.77;;;7.00;91.80;;;;;;6180971;28;20051;-81
2022/02/22 02:08:46;;;;;;;7.30;2.30;;;6.80;92.00;;;;;;6180850;28;20058;-83
2022/02/22 02:11:50;;;;;;;5.60;1.30;;;6.90;91.80;;;;;;6181045;28;20042;-83
2022/02/22 02:14:52;;;;;;;6.05;1.33;;;6.90;91.90;;;;;;6180339;28;20061;-83
2022/02/22 02:17:54;;;;;;;9.63;1.10;;;7.00;92.10;;;;;;6181180;28;20520;-83
2022/02/22 02:20:58;;;;;;;8.13;1.73;;;7.10;92.00;;;;;;6181670;28;20093;-82
2022/02/22 02:24:12;;;;;;;4.78;0.90;;;7.10;91.70;;;;;;6179990;28;20051;-81
2022/02/22 02:27:14;;;;;;;8.68;1.10;;;7.10;91.70;;;;;;6183539;28;20041;-80
2022/02/22 02:30:17;;;;;;;8.60;1.02;;;7.10;91.80;;;;;;6197242;28;20130;-82
2022/02/22 02:33:19;;;;;;;6.25;1.13;;;7.20;91.60;;;;;;6189351;28;20142;-82
2022/02/22 02:36:20;;;;;;;6.28;1.35;;;7.10;91.40;;;;;;6180152;28;20071;-83
2022/02/22 02:39:24;;;;;;;4.13;1.10;;;7.10;91.50;;;;;;6180335;28;20061;-81
2022/02/22 02:42:25;;;;;;;5.72;1.15;;;7.00;91.70;;;;;;6180142;28;20527;-83
2022/02/22 02:45:27;;;;;;;4.38;0.90;;;7.00;91.70;;;;;;6180430;28;20082;-83
2022/02/22 02:48:29;;;;;;;8.68;2.50;;;7.00;91.70;;;;;;6188587;28;20070;-81
2022/02/22 02:51:31;;;;;;;9.98;1.38;;;7.00;91.80;;;;;;6180355;28;20054;-80
2022/02/22 02:54:35;;;;;;;2.92;1.00;;;7.00;91.80;;;;;;6180280;28;20043;-83
2022/02/22 02:57:38;;;;;;;6.93;1.20;;;6.90;91.70;;;;;;6179868;28;20133;-83
2022/02/22 03:00:40;;;;;;;7.88;2.53;;;6.80;92.10;;;;;;6180364;28;20050;-83
2022/02/22 03:03:42;;;;;;;5.10;1.13;;;6.80;92.10;;;;;;6179735;28;20121;-81
2022/02/22 03:06:44;;;;;;;2.15;0.77;;;6.80;92.10;;;;;;6178898;28;20051;-81
2022/02/22 03:09:47;;;;;;;7.25;1.73;;;6.80;92.30;;;;;;6179597;28;20057;-83
2022/02/22 03:12:48;;;;;;;4.38;1.02;;;6.80;92.20;;;;;;6179761;28;20106;-83
2022/02/22 03:15:50;;;;;;;8.18;1.45;;;6.80;92.40;;;;;;6178517;28;20619;-82
2022/02/22 03:18:52;;;;;;;6.00;1.15;;;6.90;92.50;;;;;;6178870;28;20055;-81
2022/02/22 03:21:54;;;;;;;3.53;1.02;;;6.90;92.20;;;;;;6177750;28;20050;-82
2022/02/22 03:24:57;;;;;;;6.13;0.80;;;6.90;92.20;;;;;;6174897;28;20053;-82
2022/02/22 03:28:00;;;;;;;3.45;1.15;;;7.00;92.40;;;;;;6174326;28;20050;-80
2022/02/22 03:31:03;;;;;;;7.13;1.65;;;7.00;92.30;;;;;;6174737;28;20098;-83
2022/02/22 03:34:05;;;;;;;7.60;1.13;;;7.10;92.30;;;;;;6174106;28;20077;-80
2022/02/22 03:37:07;;;;;;;8.23;1.58;;;7.10;92.30;;;;;;6174527;28;20502;-81
2022/02/22 03:40:11;;;;;;;10.02;1.55;;;7.20;92.60;;;;;;6179277;28;20053;-82
2022/02/22 03:43:12;;;;;;;3.45;0.85;;;7.30;92.40;;;;;;6180646;28;20504;-83
2022/02/22 03:46:14;;;;;;;5.63;1.67;;;7.40;92.00;;;;;;6179876;28;20123;-83
2022/02/22 03:49:17;;;;;;;3.50;1.10;;;7.40;92.00;;;;;;6179607;28;20054;-80
2022/02/22 03:52:19;;;;;;;10.90;1.45;;;7.50;92.00;;;;;;6179476;28;20416;-82
2022/02/22 03:55:23;;;;;;;5.05;1.20;;;7.50;91.90;;;;;;6179545;28;20043;-80
2022/02/22 03:58:25;;;;;;;2.28;0.93;;;7.50;91.80;;;;;;6179276;28;20057;-81
2022/02/22 04:01:26;;;;;;;5.55;1.67;;;7.60;91.90;;;;;;6179143;28;20065;-82
2022/02/22 04:04:28;;;;;;;8.88;1.52;;;7.60;91.60;;;;;;6178411;28;20424;-81
2022/02/22 04:07:30;;;;;;;4.13;1.45;;;7.60;91.40;;;;;;6178480;28;20512;-80
2022/02/22 04:10:33;;;;;;;9.02;1.38;;;7.50;91.50;;;;;;6179280;28;20051;-81
2022/02/22 04:13:35;;;;;;;5.30;1.08;;;7.50;91.60;;;;;;6178746;28;20110;-82
2022/02/22 04:16:37;;;;;;;14.25;2.83;;;7.30;91.40;;;;;;6178863;28;20061;-81
2022/02/22 04:19:38;;;;;;;8.18;0.98;;;7.20;91.70;;;;;;6178069;28;20070;-80
2022/02/22 04:22:40;;;;;;;5.82;1.17;;;7.10;92.00;;;;;;6178246;28;20070;-79
2022/02/22 04:25:43;;;;;;;3.28;1.20;;;6.90;92.10;;;;;;6178433;28;20051;-82
2022/02/22 04:28:45;;;;;;;13.20;0.95;;;6.80;92.30;;;;;;6179464;28;20047;-81
2022/02/22 04:31:47;;;;;;;5.00;1.75;;;6.70;92.60;;;;;;6178527;28;20424;-80
2022/02/22 04:34:49;;;;;;;7.57;1.83;;;6.60;92.60;;;;;;6178429;28;20046;-80
2022/02/22 04:37:51;;;;;;;7.00;1.45;;;6.50;92.90;;;;;;6177699;28;20050;-80
2022/02/22 04:40:54;;;;;;;12.60;1.20;;;6.50;93.00;;;;;;6179508;28;20078;-82
2022/02/22 04:43:56;;;;;;;8.18;1.80;;;6.40;93.00;;;;;;6178594;28;20074;-81
2022/02/22 04:46:58;;;;;;;2.75;1.30;;;6.40;93.20;;;;;;6177442;28;20533;-81
2022/02/22 04:50:00;;;;;;;8.68;1.55;;;6.40;93.30;;;;;;6178801;28;20453;-81
2022/02/22 04:53:01;;;;;;;3.75;0.90;;;6.40;93.30;;;;;;6178867;28;20043;-82
2022/02/22 04:56:05;;;;;;;14.32;2.15;;;6.50;93.30;;;;;;6177848;28;20042;-83
2022/02/22 04:59:07;;;;;;;7.95;1.73;;;6.60;93.30;;;;;;6186424;28;20078;-83
2022/02/22 05:02:08;;;;;;;4.47;1.80;;;6.70;93.20;;;;;;6182667;28;20130;-82
2022/02/22 05:05:10;;;;;;;8.10;2.22;;;6.70;93.20;;;;;;6182748;28;20525;-81
2022/02/22 05:08:12;;;;;;;8.88;1.45;;;6.70;93.00;;;;;;6182013;28;20067;-83
2022/02/22 05:11:15;;;;;;;11.43;2.40;;;6.70;93.00;;;;;;6181995;28;20056;-83
2022/02/22 05:14:17;;;;;;;9.27;1.63;;;6.70;93.00;;;;;;6181665;28;20133;-83
2022/02/22 05:17:19;;;;;;;9.68;1.83;;;6.70;93.20;;;;;;6181912;28;20528;-81
2022/02/22 05:20:20;;;;;;;19.20;3.40;;;6.80;93.20;;;;;;6181656;28;20113;-83
2022/02/22 05:23:22;;;;;;;8.57;1.85;;;6.90;93.00;;;;;;6181354;28;20050;-83
2022/02/22 05:26:26;;;;;;;14.95;1.92;;;6.90;92.90;;;;;;6181143;28;20057;-83
2022/02/22 05:29:27;;;;;;;15.75;2.03;;;7.00;92.90;;;;;;6181074;28;20057;-83
2022/02/22 05:32:30;;;;;;;9.95;2.10;;;7.00;92.80;;;;;;6180185;28;20057;-82
2022/02/22 05:35:32;;;;;;;10.25;2.50;;;6.90;92.80;;;;;;6179929;28;20054;-83
2022/02/22 05:38:34;;;;;;;9.60;2.00;;;6.80;92.70;;;;;;6179598;28;20556;-82
2022/02/22 05:41:37;;;;;;;6.97;2.15;;;6.70;92.80;;;;;;6178966;28;20054;-80
2022/02/22 05:44:39;;;;;;;9.60;1.92;;;6.60;93.10;;;;;;6179046;28;20224;-83
2022/02/22 05:47:40;;;;;;;15.60;2.15;;;6.50;93.20;;;;;;6179199;28;20129;-81
2022/02/22 05:50:42;;;;;;;15.15;3.83;;;6.40;93.40;;;;;;6178829;28;20047;-82
2022/02/22 05:53:44;;;;;;;9.45;3.17;;;6.30;93.50;;;;;;6179115;28;20046;-79
2022/02/22 05:56:48;;;;;;;15.73;3.00;;;6.30;93.70;;;;;;6176407;28;20647;-81
2022/02/22 05:59:50;;;;;;;7.07;2.17;;;6.30;93.70;;;;;;6176986;28;20063;-81
2022/02/22 06:02:52;;;;;;;9.18;2.00;;;6.20;93.80;;;;;;6178240;28;20066;-83
2022/02/22 06:05:53;;;;;;;12.07;2.22;;;6.20;94.00;;;;;;6179586;28;20050;-83
2022/02/22 06:08:55;;;;;;;17.13;3.08;;;6.20;93.90;;;;;;6178446;28;20073;-81
2022/02/22 06:11:58;;;;;;;12.23;2.60;;;6.20;94.10;;;;;;6177335;28;20078;-80
2022/02/22 06:15:00;;;;;;;16.75;2.80;;;6.10;94.00;;;;;;6177151;28;20417;-81
2022/02/22 06:18:02;;;;;;;17.25;3.65;;;6.10;94.10;;;;;;6177788;28;20083;-81
2022/02/22 06:21:04;;;;;;;14.15;3.45;;;6.10;94.10;;;;;;6178575;28;20055;-81
2022/02/22 06:24:06;;;;;;;16.83;2.65;;;6.10;94.30;;;;;;6178797;28;20138;-82
2022/02/22 06:27:09;;;;;;;16.92;3.38;;;6.00;94.30;;;;;;6177386;28;20047;-81
2022/02/22 06:30:11;;;;;;;14.85;2.60;;;6.00;94.30;;;;;;6178301;28;20042;-82
2022/02/22 06:33:13;;;;;;;13.32;2.15;;;6.00;94.40;;;;;;6181648;28;20054;-83
2022/02/22 06:36:15;;;;;;;6.82;2.03;;;6.00;94.40;;;;;;6180197;28;20051;-83
2022/02/22 06:39:16;;;;;;;23.58;3.75;;;6.00;94.40;;;;;;6178599;28;20046;-81
2022/02/22 06:42:19;;;;;;;11.00;2.13;;;6.00;94.50;;;;;;6178035;28;20050;-81
2022/02/22 06:45:22;;;;;;;10.27;2.90;;;6.00;94.40;;;;;;6177719;28;20059;-83
2022/02/22 06:48:23;;;;;;;16.48;3.42;;;6.00;94.40;;;;;;6178567;28;20110;-83
2022/02/22 06:51:25;;;;;;;13.70;2.50;;;6.00;94.50;;;;;;6179441;28;20534;-83
2022/02/22 06:54:27;;;;;;;17.70;2.97;;;6.10;94.40;;;;;;6178573;28;20050;-81
2022/02/22 06:57:30;;;;;;;17.08;3.03;;;6.10;94.50;;;;;;6178400;28;20456;-82
2022/02/22 07:00:34;;;;;;;19.38;4.15;;;6.20;94.40;;;;;;6178906;28;20046;-83
2022/02/22 07:03:36;;;;;;;16.75;2.47;;;6.20;94.50;;;;;;6179406;28;20057;-83
2022/02/22 07:06:38;;;;;;;11.82;2.55;;;6.30;94.40;;;;;;6180567;28;20058;-82
2022/02/22 07:09:40;;;;;;;12.10;2.60;;;6.40;94.30;;;;;;6182306;28;20142;-82
2022/02/22 07:12:43;;;;;;;14.52;2.55;;;6.60;94.00;;;;;;6182527;28;20110;-83
2022/02/22 07:15:46;;;;;;;12.45;3.00;;;6.70;93.90;;;;;;6184540;28;20046;-82
2022/02/22 07:18:48;;;;;;;16.67;2.88;;;6.90;93.70;;;;;;6186793;28;20432;-82
2022/02/22 07:21:49;;;;;;;6.45;1.67;;;7.10;93.60;;;;;;6192635;28;20082;-79
2022/02/22 07:24:51;;;;;;;13.60;2.08;;;7.50;93.50;;;;;;6199887;28;20104;-83
2022/02/22 07:27:54;;;;;;;15.40;3.55;;;7.80;92.60;;;;;;6184185;28;20129;-83
2022/02/22 07:30:57;;;;;;;7.60;1.92;;;8.00;92.10;;;;;;6182873;28;20667;-83
2022/02/22 07:33:59;;;;;;;8.63;2.00;;;8.30;91.80;;;;;;6182059;28;20038;-83
2022/02/22 07:37:02;;;;;;;4.38;1.95;;;8.90;90.90;;;;;;6182530;28;20114;-82
2022/02/22 07:40:04;;;;;;;10.70;2.72;;;9.40;90.30;;;;;;6181451;28;20124;-83
2022/02/22 07:43:06;;;;;;;10.05;1.83;;;9.70;88.50;;;;;;6181331;28;20046;-84
2022/02/22 07:46:09;;;;;;;5.43;1.38;;;10.00;87.30;;;;;;6184948;28;20050;-83
2022/02/22 07:49:11;;;;;;;15.63;2.38;;;10.20;86.50;;;;;;6185340;28;20496;-82
2022/02/22 07:52:13;;;;;;;6.25;1.95;;;10.40;86.10;;;;;;6179413;28;20050;-81
2022/02/22 07:55:15;;;;;;;8.90;1.90;;;10.30;85.10;;;;;;6179326;28;20053;-81
2022/02/22 07:58:17;;;;;;;13.40;3.03;;;10.20;86.00;;;;;;6179435;28;20054;-79
2022/02/22 08:01:20;;;;;;;5.45;1.40;;;10.10;85.40;;;;;;6179501;28;20567;-80
2022/02/22 08:04:25;;;;;;;8.45;2.10;;;9.90;85.30;;;;;;6179165;28;20051;-87
2022/02/22 08:07:26;;;;;;;6.50;1.80;;;9.70;86.00;;;;;;6179207;28;20055;-79
2022/02/22 08:10:29;;;;;;;13.93;1.88;;;9.60;85.60;;;;;;6181541;28;20046;-80
2022/02/22 08:13:32;;;;;;;12.77;1.88;;;9.50;85.90;;;;;;6189547;28;20046;-79
2022/02/22 08:16:35;;;;;;;6.57;1.90;;;9.30;86.10;;;;;;6201947;28;20053;-81
2022/02/22 08:19:36;;;;;;;9.98;1.55;;;9.20;86.70;;;;;;6180848;28;20062;-79
2022/02/22 08:22:38;;;;;;;9.18;1.65;;;9.20;87.30;;;;;;6202700;28;20046;-80
2022/02/22 08:25:41;;;;;;;8.63;2.58;;;9.30;87.70;;;;;;6203206;28;20050;-83
2022/02/22 08:28:43;;;;;;;11.05;2.67;;;9.40;86.50;;;;;;6204083;28;20114;-83
2022/02/22 08:31:46;;;;;;;5.30;1.30;;;9.50;86.00;;;;;;6211446;28;20046;-80
2022/02/22 08:34:48;;;;;;;5.32;2.00;;;9.50;85.80;;;;;;6202201;28;20439;-79
2022/02/22 08:37:53;;;;;;;13.23;1.70;;;9.50;85.70;;;;;;6202891;28;20137;-80
2022/02/22 08:40:55;;;;;;;9.60;2.25;;;9.70;86.10;;;;;;6197227;28;20053;-80
2022/02/22 08:43:57;;;;;;;10.05;2.90;;;9.80;85.50;;;;;;6201857;28;20125;-81
2022/02/22 08:47:00;;;;;;;13.75;2.45;;;9.80;85.00;;;;;;6202116;28;20172;-80
2022/02/22 08:50:02;;;;;;;14.30;2.33;;;9.70;85.40;;;;;;6202308;28;20129;-81
2022/02/22 08:53:05;;;;;;;12.00;1.67;;;9.60;85.00;;;;;;6202930;28;20047;-81
2022/02/22 08:56:07;;;;;;;9.50;3.33;;;9.50;86.10;;;;;;6201280;28;20054;-79
2022/02/22 08:59:09;;;;;;;8.60;1.48;;;9.60;86.10;;;;;;6203228;28;20562;-81
2022/02/22 09:02:13;;;;;;;6.18;1.65;;;9.60;86.50;;;;;;6201998;28;20167;-79
2022/02/22 09:05:15;;;;;;;8.45;1.85;;;9.70;85.60;;;;;;6205455;28;20140;-84
2022/02/22 09:08:17;;;;;;;20.25;2.92;;;9.70;85.30;;;;;;6203019;28;20129;-80
2022/02/22 09:11:18;;;;;;;11.20;1.80;;;9.90;86.20;;;;;;6195060;28;20042;-79
2022/02/22 09:14:21;;;;;;;13.20;2.75;;;10.20;85.50;;;;;;6203683;28;20050;-83
2022/02/22 09:17:24;;;;;;;15.07;2.45;;;10.60;83.40;;;;;;6204032;28;20054;-82
2022/02/22 09:20:26;;;;;;;14.20;2.05;;;10.90;83.00;;;;;;6202578;28;20129;-82
2022/02/22 09:23:28;;;;;;;10.98;2.53;;;11.20;81.10;;;;;;6202901;28;20053;-84
2022/02/22 09:26:30;;;;;;;12.48;3.35;;;11.20;80.90;;;;;;6201343;28;20128;-79
2022/02/22 09:29:31;;;;;;;16.65;2.28;;;11.20;80.10;;;;;;6201936;28;20424;-80
2022/02/22 09:32:35;;;;;;;10.35;2.00;;;11.20;80.40;;;;;;6202267;28;20572;-81
2022/02/22 09:35:37;;;;;;;14.23;3.13;;;11.30;80.50;;;;;;6200620;28;20046;-82
2022/02/22 09:39:12;;;;;;;15.00;2.35;;;11.30;79.40;;;;;;6198634;28;20050;-85
2022/02/22 09:42:14;;;;;;;11.27;2.38;;;11.30;79.50;;;;;;6192880;28;20057;-80
2022/02/22 09:45:17;;;;;;;10.25;2.58;;;11.60;79.80;;;;;;6199484;28;20058;-80
2022/02/22 09:48:20;;;;;;;12.40;2.25;;;11.90;79.80;;;;;;6199163;28;20050;-80
2022/02/22 09:51:22;;;;;;;17.02;2.83;;;12.00;77.80;;;;;;6198744;28;20050;-80
2022/02/22 09:54:25;;;;;;;11.38;2.70;;;12.10;77.40;;;;;;6199463;28;20046;-81
2022/02/22 09:57:27;;;;;;;15.38;2.95;;;12.30;77.60;;;;;;6199109;28;20061;-79
2022/02/22 10:00:31;;;;;;;13.98;3.17;;;12.30;76.10;;;;;;6199871;28;20047;-78
2022/02/22 10:03:34;;;;;;;18.70;2.88;;;12.10;76.00;;;;;;6199098;28;20043;-78
2022/02/22 10:06:37;;;;;;;18.55;2.53;;;11.80;76.20;;;;;;6199498;28;20043;-79
2022/02/22 10:09:52;;;;;;;19.42;3.10;;;11.60;78.00;;;;;;6200298;28;20050;-81
2022/02/22 10:12:55;;;;;;;15.98;3.30;;;11.40;78.50;;;;;;6190642;28;20424;-81
2022/02/22 10:15:58;;;;;;;16.50;2.40;;;11.30;79.20;;;;;;6178855;28;20125;-82
2022/02/22 10:19:03;;;;;;;15.55;2.75;;;11.20;78.80;;;;;;6177520;28;20508;-78
2022/02/22 10:22:09;;;;;;;24.00;4.35;;;11.00;78.50;;;;;;6180305;28;20043;-79
2022/02/22 10:25:11;;;;;;;17.50;2.55;;;10.90;79.50;;;;;;6179165;28;20071;-79
2022/02/22 10:28:18;;;;;;;10.52;3.08;;;10.90;79.70;;;;;;6175741;28;20454;-83
2022/02/22 10:31:30;;;;;;;14.48;2.33;;;10.80;79.90;;;;;;6175918;28;20066;-78
2022/02/22 10:34:34;;;;;;;15.93;2.53;;;10.70;80.70;;;;;;6175399;28;20472;-78
2022/02/22 10:37:36;;;;;;;14.27;3.25;;;10.70;81.00;;;;;;6176377;28;20065;-78
2022/02/22 10:40:38;;;;;;;14.75;3.00;;;10.70;81.10;;;;;;6169329;28;20533;-79
2022/02/22 10:43:40;;;;;;;29.00;3.10;;;10.60;81.10;;;;;;6203219;28;20053;-78
2022/02/22 10:46:45;;;;;;;16.38;3.00;;;10.70;81.10;;;;;;6203921;28;20046;-79
2022/02/22 10:49:49;;;;;;;18.70;3.00;;;10.90;80.80;;;;;;6206323;28;20054;-79
2022/02/22 10:52:51;;;;;;;21.83;3.33;;;10.80;80.20;;;;;;6209507;28;20443;-79
2022/02/22 10:55:54;;;;;;;18.02;3.42;;;10.70;80.30;;;;;;6208638;28;20061;-79
2022/02/22 10:58:56;;;;;;;13.45;2.53;;;10.40;80.50;;;;;;6205506;28;20057;-79
2022/02/22 11:01:59;;;;;;;21.20;3.67;;;10.40;81.10;;;;;;6206904;28;20510;-78
2022/02/22 11:05:06;;;;;;;14.77;2.95;;;10.40;81.10;;;;;;6206138;28;20655;-79
2022/02/22 11:08:07;;;;;;;20.75;2.33;;;10.30;81.10;;;;;;6204669;28;20455;-78
2022/02/22 11:11:11;;;;;;;8.45;2.80;;;10.30;80.90;;;;;;6198922;28;20046;-78
2022/02/22 11:14:17;;;;;;;17.92;2.88;;;10.40;80.90;;;;;;6204691;28;20038;-77
2022/02/22 11:17:20;;;;;;;20.63;5.25;;;10.50;80.40;;;;;;6206275;28;20056;-80
2022/02/22 11:20:32;;;;;;;15.85;3.10;;;10.50;80.20;;;;;;6206735;28;20042;-78
2022/02/22 11:23:33;;;;;;;11.23;2.80;;;10.60;80.00;;;;;;6208608;28;20054;-79
2022/02/22 11:26:46;;;;;;;13.73;2.10;;;10.70;79.10;;;;;;6206307;28;20401;-79
2022/02/22 11:29:55;;;;;;;15.82;3.00;;;10.90;78.70;;;;;;6206555;28;20101;-79
2022/02/22 11:32:59;;;;;;;15.10;2.85;;;11.20;77.70;;;;;;6204993;28;20065;-79
2022/02/22 11:36:05;;;;;;;16.52;2.58;;;11.30;77.10;;;;;;6205270;28;20049;-81
2022/02/22 11:39:19;;;;;;;24.00;2.88;;;11.60;76.10;;;;;;6204698;28;20053;-80
2022/02/22 11:42:23;;;;;;;17.77;3.38;;;11.60;75.60;;;;;;6197718;28;20065;-80
2022/02/22 11:45:27;;;;;;;15.23;2.60;;;11.50;75.20;;;;;;6201817;28;20133;-79
2022/02/22 11:48:35;;;;;;;19.58;3.50;;;11.50;75.60;;;;;;6202388;28;20506;-80
2022/02/22 11:51:43;;;;;;;16.00;3.00;;;11.50;75.60;;;;;;6203046;28;20046;-79
2022/02/22 11:54:46;;;;;;;13.02;3.35;;;11.70;75.50;;;;;;6202994;28;20129;-80
2022/02/22 11:57:50;;;;;;;18.42;2.58;;;12.10;75.30;;;;;;6202001;28;20070;-79
2022/02/22 12:00:54;;;;;;;13.30;2.88;;;12.50;73.90;;;;;;6203393;28;20046;-81
2022/02/22 12:03:56;;;;;;;8.65;2.22;;;12.90;72.60;;;;;;6203572;28;20057;-80
2022/02/22 12:07:01;;;;;;;16.65;2.83;;;13.20;71.30;;;;;;6208416;28;20054;-81
2022/02/22 12:10:07;;;;;;;9.05;2.30;;;13.40;71.20;;;;;;6204062;28;20046;-79
2022/02/22 12:13:09;;;;;;;17.00;3.33;;;13.70;69.80;;;;;;6199798;28;20042;-78
2022/02/22 12:16:15;;;;;;;14.27;2.30;;;13.80;68.90;;;;;;6203719;28;20054;-80
2022/02/22 12:19:20;;;;;;;11.32;2.00;;;13.60;69.00;;;;;;6198867;28;20062;-79
2022/02/22 12:22:25;;;;;;;14.75;2.78;;;13.40;70.00;;;;;;6179333;28;20173;-79
2022/02/22 12:25:28;;;;;;;12.68;2.33;;;13.40;70.90;;;;;;6170312;28;20146;-79
2022/02/22 12:28:30;;;;;;;17.48;2.47;;;13.30;70.90;;;;;;6177350;28;20058;-79
2022/02/22 12:31:34;;;;;;;13.73;2.60;;;13.30;70.40;;;;;;6178158;28;20057;-81
2022/02/22 12:34:36;;;;;;;9.27;2.10;;;13.10;70.70;;;;;;6179551;28;20073;-80
2022/02/22 12:37:43;;;;;;;11.43;2.50;;;12.90;71.10;;;;;;6177461;28;20054;-79
2022/02/22 12:40:45;;;;;;;11.65;3.80;;;13.00;71.00;;;;;;6178570;28;20122;-78
2022/02/22 12:43:49;;;;;;;17.38;2.80;;;13.00;69.60;;;;;;6202280;28;20517;-78
2022/02/22 12:46:54;;;;;;;14.05;2.42;;;13.10;69.40;;;;;;6201136;28;20038;-79
2022/02/22 12:50:01;;;;;;;13.43;3.30;;;13.30;69.10;;;;;;6200833;28;20046;-78
2022/02/22 12:53:04;;;;;;;25.92;9.32;;;13.40;68.40;;;;;;6201936;28;20184;-77
2022/02/22 12:56:06;;;;;;;18.50;7.60;;;13.60;68.80;;;;;;6193734;28;20449;-78
2022/02/22 12:59:10;;;;;;;12.50;2.65;;;13.60;67.40;;;;;;6177505;28;20050;-80
2022/02/22 13:02:11;;;;;;;14.93;4.35;;;13.60;66.70;;;;;;6177442;28;20072;-79
2022/02/22 13:05:13;;;;;;;17.52;4.35;;;13.40;66.80;;;;;;6177578;28;20208;-79
2022/02/22 13:08:17;;;;;;;15.02;2.47;;;13.20;65.80;;;;;;6177393;28;20110;-77
2022/02/22 13:11:29;;;;;;;11.70;2.50;;;13.00;66.00;;;;;;6181730;28;20043;-79
2022/02/22 13:14:38;;;;;;;16.23;3.53;;;12.90;66.90;;;;;;6201068;28;20057;-80
2022/02/22 13:17:39;;;;;;;13.73;3.58;;;12.70;67.10;;;;;;6200520;28;20054;-79
2022/02/22 13:20:43;;;;;;;15.70;3.67;;;12.70;67.70;;;;;;6200797;28;20060;-79
2022/02/22 13:23:46;;;;;;;7.70;1.55;;;12.70;68.00;;;;;;6203815;28;20038;-79
2022/02/22 13:26:48;;;;;;;17.42;3.47;;;12.70;67.00;;;;;;6201392;28;20429;-79
2022/02/22 13:29:56;;;;;;;14.95;3.35;;;12.70;67.00;;;;;;6202346;28;20419;-80
2022/02/22 13:33:05;;;;;;;10.13;3.08;;;12.60;66.90;;;;;;6206396;28;20057;-79
2022/02/22 13:36:13;;;;;;;11.48;2.58;;;12.60;67.50;;;;;;6186582;28;20054;-79
2022/02/22 13:39:21;;;;;;;15.20;3.00;;;12.60;67.50;;;;;;6178181;28;20134;-79
2022/02/22 13:42:25;;;;;;;18.50;3.85;;;12.40;68.00;;;;;;6190619;28;20046;-79
2022/02/22 13:45:31;;;;;;;18.20;6.60;;;12.30;70.00;;;;;;6203359;28;20042;-79
2022/02/22 13:48:33;;;;;;;10.35;2.65;;;12.30;69.80;;;;;;6202582;28;20050;-78
2022/02/22 13:51:36;;;;;;;19.60;2.50;;;12.30;69.50;;;;;;6203750;28;20050;-81
2022/02/22 13:54:46;;;;;;;13.20;2.40;;;12.20;69.60;;;;;;6205073;28;20065;-81
2022/02/22 13:57:49;;;;;;;8.68;1.75;;;12.10;70.10;;;;;;6204264;28;20113;-80
2022/02/22 14:00:52;;;;;;;22.55;3.70;;;12.00;69.20;;;;;;6205222;28;20121;-80
2022/02/22 14:03:53;;;;;;;16.98;2.42;;;12.00;69.10;;;;;;6213464;28;20070;-78
2022/02/22 14:06:56;;;;;;;11.18;2.70;;;12.30;68.60;;;;;;6201953;28;20420;-79
2022/02/22 14:09:59;;;;;;;14.35;2.25;;;12.50;67.80;;;;;;6197649;28;20053;-79
2022/02/22 14:13:01;;;;;;;13.57;2.05;;;12.70;67.50;;;;;;6192638;28;20042;-80
2022/02/22 14:16:04;;;;;;;6.78;1.65;;;13.10;66.80;;;;;;6180283;28;20055;-80
2022/02/22 14:19:07;;;;;;;12.65;2.13;;;13.30;65.60;;;;;;6174894;28;20061;-80
2022/02/22 14:22:09;;;;;;;12.45;1.75;;;13.40;65.10;;;;;;6174993;28;20043;-80
2022/02/22 14:25:12;;;;;;;16.85;4.15;;;13.40;65.00;;;;;;6176796;28;20061;-79
2022/02/22 14:28:14;;;;;;;17.35;2.38;;;13.40;64.80;;;;;;6177721;28;20050;-79
2022/02/22 14:31:16;;;;;;;14.32;2.67;;;13.30;64.90;;;;;;6177678;28;20394;-80
2022/02/22 14:34:28;;;;;;;21.65;2.60;;;13.10;63.70;;;;;;6180008;28;20054;-80
2022/02/22 14:37:30;;;;;;;12.90;2.00;;;12.90;64.10;;;;;;6180511;28;20057;-78
2022/02/22 14:40:33;;;;;;;12.30;1.75;;;12.80;64.60;;;;;;6175150;28;20193;-81
2022/02/22 14:43:36;;;;;;;17.10;2.03;;;12.70;65.40;;;;;;6201235;28;20062;-82
2022/02/22 14:46:39;;;;;;;9.95;2.10;;;12.70;65.50;;;;;;6202543;28;20058;-79
2022/02/22 14:49:40;;;;;;;18.90;2.47;;;12.60;66.00;;;;;;6200496;28;20061;-78
2022/02/22 14:52:42;;;;;;;22.23;3.40;;;12.60;66.00;;;;;;6200252;28;20050;-80
2022/02/22 14:55:45;;;;;;;20.65;2.03;;;12.60;66.20;;;;;;6201543;28;20070;-80
2022/02/22 14:58:47;;;;;;;10.73;1.98;;;12.40;66.40;;;;;;6201238;28;20129;-80
2022/02/22 15:01:49;;;;;;;13.40;2.88;;;12.40;66.90;;;;;;6200676;28;20513;-79
2022/02/22 15:04:51;;;;;;;22.02;6.00;;;12.30;67.20;;;;;;6200213;28;20050;-79
2022/02/22 15:07:53;;;;;;;19.58;4.40;;;12.30;67.10;;;;;;6200838;28;20050;-79
2022/02/22 15:10:57;;;;;;;37.85;14.60;;;12.20;67.40;;;;;;6193476;28;20046;-80
2022/02/22 15:13:59;;;;;;;19.08;5.72;;;12.10;68.90;;;;;;6201533;28;21371;-79
2022/02/22 15:17:01;;;;;;;17.92;5.10;;;12.10;68.80;;;;;;6201466;28;20072;-81
2022/02/22 15:20:04;;;;;;;24.75;7.95;;;12.10;69.00;;;;;;6200945;28;20056;-80
2022/02/22 15:23:08;;;;;;;23.75;7.93;;;12.10;69.50;;;;;;6203009;28;20070;-82
2022/02/22 15:26:12;;;;;;;27.33;11.18;;;12.10;68.70;;;;;;6187658;28;20061;-80
2022/02/22 15:29:14;;;;;;;12.70;2.55;;;12.00;69.20;;;;;;6180983;28;20068;-81
2022/02/22 15:32:16;;;;;;;15.57;4.63;;;11.90;68.60;;;;;;6181181;28;20073;-81
2022/02/22 15:35:19;;;;;;;20.05;5.63;;;11.70;68.50;;;;;;6187608;28;20078;-82
2022/02/22 15:38:22;;;;;;;11.25;3.17;;;11.60;68.30;;;;;;6190816;28;20057;-80
2022/02/22 15:41:26;;;;;;;54.13;25.23;;;11.50;69.00;;;;;;6194954;28;20101;-80
2022/02/22 15:44:28;;;;;;;15.40;4.82;;;11.40;71.10;;;;;;6210342;28;20042;-80
2022/02/22 15:47:30;;;;;;;12.80;3.75;;;11.30;72.30;;;;;;6213195;28;20073;-80
2022/02/22 15:50:32;;;;;;;12.40;1.88;;;11.30;72.30;;;;;;6210405;28;20564;-80
2022/02/22 15:53:34;;;;;;;6.53;2.13;;;11.20;72.50;;;;;;6208826;28;20114;-80
2022/02/22 15:56:37;;;;;;;11.95;2.08;;;11.10;72.90;;;;;;6208182;28;20684;-82
2022/02/22 15:59:40;;;;;;;8.80;2.00;;;11.00;73.50;;;;;;6207018;28;20046;-82
2022/02/22 16:02:42;;;;;;;13.55;2.25;;;11.00;74.00;;;;;;6208119;28;20089;-80
2022/02/22 16:05:44;;;;;;;12.15;2.00;;;11.00;74.10;;;;;;6207579;28;20046;-80
2022/02/22 16:08:46;;;;;;;10.95;2.17;;;11.00;74.30;;;;;;6207781;28;20082;-79
2022/02/22 16:11:50;;;;;;;15.88;3.65;;;10.90;74.40;;;;;;6199668;28;20038;-79
2022/02/22 16:14:51;;;;;;;13.20;2.55;;;10.90;74.50;;;;;;6205656;28;20070;-79
2022/02/22 16:17:54;;;;;;;11.10;2.15;;;10.90;74.60;;;;;;6183426;28;20050;-78